sensor_id;sensor_type;location;lat;lon;timestamp;P1;durP1;ratioP1;P2;durP2;ratioP2
13785;SDS011;47474;48.824;9.384;2023-07-31T00:01:09;4.25;;;2.03;;
13785;SDS011;47474;48.824;9.384;2023-07-31T00:03:52;2.03;;;1.77;;
13785;SDS011;47474;48.824;9.384;2023-07-31T00:06:33;4.97;;;1.98;;
13785;SDS011;47474;48.824;9.384;2023-07-31T00:11:40;2.38;;;1.83;;
13785;SDS011;47474;48.824;9.384;2023-07-31T00:14:07;1.92;;;1.73;;
13785;SDS011;47474;48.824;9.384;2023-07-31T00:16:37;1.90;;;1.70;;
13785;SDS011;47474;48.824;9.384;2023-07-31T00:19:07;5.97;;;2.08;;
13785;SDS011;47474;48.824;9.384;2023-07-31T00:21:38;4.72;;;2.05;;
13785;SDS011;47474;48.824;9.384;2023-07-31T00:24:04;3.00;;;2.08;;
13785;SDS011;47474;48.824;9.384;2023-07-31T00:26:32;3.63;;;1.65;;
13785;SDS011;47474;48.824;9.384;2023-07-31T00:29:00;3.85;;;1.90;;
13785;SDS011;47474;48.824;9.384;2023-07-31T00:31:29;3.17;;;1.98;;
13785;SDS011;47474;48.824;9.384;2023-07-31T00:34:01;3.10;;;1.65;;
13785;SDS011;47474;48.824;9.384;2023-07-31T00:36:31;5.63;;;2.20;;
13785;SDS011;47474;48.824;9.384;2023-07-31T00:38:59;4.50;;;2.08;;
13785;SDS011;47474;48.824;9.384;2023-07-31T00:41:29;3.80;;;2.42;;
13785;SDS011;47474;48.824;9.384;2023-07-31T00:43:57;3.30;;;1.73;;
13785;SDS011;47474;48.824;9.384;2023-07-31T00:46:24;3.05;;;2.25;;
13785;SDS011;47474;48.824;9.384;2023-07-31T00:48:52;3.25;;;2.20;;
13785;SDS011;47474;48.824;9.384;2023-07-31T00:51:24;4.63;;;1.85;;
13785;SDS011;47474;48.824;9.384;2023-07-31T00:53:51;4.03;;;1.83;;
13785;SDS011;47474;48.824;9.384;2023-07-31T00:56:22;2.75;;;2.10;;
13785;SDS011;47474;48.824;9.384;2023-07-31T00:58:51;2.88;;;1.95;;
13785;SDS011;47474;48.824;9.384;2023-07-31T01:01:23;3.65;;;1.70;;
13785;SDS011;47474;48.824;9.384;2023-07-31T01:04:14;2.92;;;1.88;;
13785;SDS011;47474;48.824;9.384;2023-07-31T01:06:59;4.35;;;2.15;;
13785;SDS011;47474;48.824;9.384;2023-07-31T01:09:34;2.80;;;1.90;;
13785;SDS011;47474;48.824;9.384;2023-07-31T01:12:18;5.50;;;1.88;;
13785;SDS011;47474;48.824;9.384;2023-07-31T01:15:03;2.45;;;1.65;;
13785;SDS011;47474;48.824;9.384;2023-07-31T01:18:02;3.47;;;1.67;;
13785;SDS011;47474;48.824;9.384;2023-07-31T01:20:38;2.92;;;1.52;;
13785;SDS011;47474;48.824;9.384;2023-07-31T03:29:00;3.00;;;1.95;;
13785;SDS011;47474;48.824;9.384;2023-07-31T03:31:35;4.70;;;2.10;;
13785;SDS011;47474;48.824;9.384;2023-07-31T03:34:01;4.57;;;2.17;;
13785;SDS011;47474;48.824;9.384;2023-07-31T03:36:28;2.50;;;1.85;;
13785;SDS011;47474;48.824;9.384;2023-07-31T03:38:55;4.53;;;2.10;;
13785;SDS011;47474;48.824;9.384;2023-07-31T03:41:23;2.67;;;1.90;;
13785;SDS011;47474;48.824;9.384;2023-07-31T03:43:57;3.78;;;2.10;;
13785;SDS011;47474;48.824;9.384;2023-07-31T03:46:24;3.83;;;1.85;;
13785;SDS011;47474;48.824;9.384;2023-07-31T03:48:59;4.13;;;1.88;;
13785;SDS011;47474;48.824;9.384;2023-07-31T03:51:39;2.80;;;1.95;;
13785;SDS011;47474;48.824;9.384;2023-07-31T03:54:23;2.58;;;2.00;;
13785;SDS011;47474;48.824;9.384;2023-07-31T03:57:20;2.13;;;1.70;;
13785;SDS011;47474;48.824;9.384;2023-07-31T04:00:02;1.95;;;1.75;;
13785;SDS011;47474;48.824;9.384;2023-07-31T04:02:45;5.10;;;2.20;;
13785;SDS011;47474;48.824;9.384;2023-07-31T04:05:26;2.85;;;1.98;;
13785;SDS011;47474;48.824;9.384;2023-07-31T04:08:20;3.42;;;2.30;;
13785;SDS011;47474;48.824;9.384;2023-07-31T04:11:01;5.38;;;2.28;;
13785;SDS011;47474;48.824;9.384;2023-07-31T04:19:15;2.83;;;2.35;;
13785;SDS011;47474;48.824;9.384;2023-07-31T04:21:47;2.50;;;2.00;;
13785;SDS011;47474;48.824;9.384;2023-07-31T04:24:15;2.95;;;1.90;;
13785;SDS011;47474;48.824;9.384;2023-07-31T04:26:56;3.15;;;1.95;;
13785;SDS011;47474;48.824;9.384;2023-07-31T04:29:39;3.40;;;2.10;;
13785;SDS011;47474;48.824;9.384;2023-07-31T04:32:28;3.05;;;1.95;;
13785;SDS011;47474;48.824;9.384;2023-07-31T04:35:04;2.05;;;1.67;;
13785;SDS011;47474;48.824;9.384;2023-07-31T04:37:40;3.20;;;2.10;;
13785;SDS011;47474;48.824;9.384;2023-07-31T04:40:18;3.45;;;1.85;;
13785;SDS011;47474;48.824;9.384;2023-07-31T04:42:55;4.07;;;2.05;;
13785;SDS011;47474;48.824;9.384;2023-07-31T04:45:35;5.45;;;2.22;;
13785;SDS011;47474;48.824;9.384;2023-07-31T04:48:08;2.72;;;2.20;;
13785;SDS011;47474;48.824;9.384;2023-07-31T04:50:40;3.75;;;2.22;;
13785;SDS011;47474;48.824;9.384;2023-07-31T04:53:12;1.98;;;1.73;;
13785;SDS011;47474;48.824;9.384;2023-07-31T04:55:38;2.92;;;1.90;;
13785;SDS011;47474;48.824;9.384;2023-07-31T04:58:08;3.00;;;1.80;;
13785;SDS011;47474;48.824;9.384;2023-07-31T05:00:35;2.83;;;1.90;;
13785;SDS011;47474;48.824;9.384;2023-07-31T05:03:02;3.53;;;1.95;;
13785;SDS011;47474;48.824;9.384;2023-07-31T05:05:30;3.85;;;2.08;;
13785;SDS011;47474;48.824;9.384;2023-07-31T05:07:59;4.43;;;2.10;;
13785;SDS011;47474;48.824;9.384;2023-07-31T05:10:26;2.75;;;2.13;;
13785;SDS011;47474;48.824;9.384;2023-07-31T05:12:55;3.35;;;2.15;;
13785;SDS011;47474;48.824;9.384;2023-07-31T05:15:22;3.15;;;1.95;;
13785;SDS011;47474;48.824;9.384;2023-07-31T05:17:49;5.05;;;2.72;;
13785;SDS011;47474;48.824;9.384;2023-07-31T05:20:26;4.97;;;2.13;;
13785;SDS011;47474;48.824;9.384;2023-07-31T05:22:58;2.97;;;1.77;;
13785;SDS011;47474;48.824;9.384;2023-07-31T05:25:28;2.88;;;2.00;;
13785;SDS011;47474;48.824;9.384;2023-07-31T05:28:02;5.45;;;2.28;;
13785;SDS011;47474;48.824;9.384;2023-07-31T05:30:34;2.33;;;1.85;;
13785;SDS011;47474;48.824;9.384;2023-07-31T05:33:26;3.42;;;2.70;;
13785;SDS011;47474;48.824;9.384;2023-07-31T05:35:57;4.35;;;2.17;;
13785;SDS011;47474;48.824;9.384;2023-07-31T05:38:25;3.25;;;2.05;;
13785;SDS011;47474;48.824;9.384;2023-07-31T05:40:57;3.60;;;2.25;;
13785;SDS011;47474;48.824;9.384;2023-07-31T05:43:39;2.40;;;2.00;;
13785;SDS011;47474;48.824;9.384;2023-07-31T05:46:15;3.20;;;2.28;;
13785;SDS011;47474;48.824;9.384;2023-07-31T05:48:59;6.03;;;2.20;;
13785;SDS011;47474;48.824;9.384;2023-07-31T05:51:29;2.72;;;1.90;;
13785;SDS011;47474;48.824;9.384;2023-07-31T05:54:02;3.40;;;2.40;;
13785;SDS011;47474;48.824;9.384;2023-07-31T05:56:35;4.80;;;2.33;;
13785;SDS011;47474;48.824;9.384;2023-07-31T05:59:01;4.85;;;2.30;;
13785;SDS011;47474;48.824;9.384;2023-07-31T06:01:30;4.40;;;2.20;;
13785;SDS011;47474;48.824;9.384;2023-07-31T06:03:56;2.67;;;1.92;;
13785;SDS011;47474;48.824;9.384;2023-07-31T06:06:23;3.78;;;2.13;;
13785;SDS011;47474;48.824;9.384;2023-07-31T06:08:50;3.75;;;2.28;;
13785;SDS011;47474;48.824;9.384;2023-07-31T06:11:18;3.75;;;2.22;;
13785;SDS011;47474;48.824;9.384;2023-07-31T06:13:45;3.88;;;2.00;;
13785;SDS011;47474;48.824;9.384;2023-07-31T06:16:13;4.57;;;2.25;;
13785;SDS011;47474;48.824;9.384;2023-07-31T06:18:43;3.75;;;2.00;;
13785;SDS011;47474;48.824;9.384;2023-07-31T06:21:10;3.00;;;1.95;;
13785;SDS011;47474;48.824;9.384;2023-07-31T06:23:37;4.07;;;1.83;;
13785;SDS011;47474;48.824;9.384;2023-07-31T06:26:03;4.40;;;1.88;;
13785;SDS011;47474;48.824;9.384;2023-07-31T06:28:31;3.88;;;2.15;;
13785;SDS011;47474;48.824;9.384;2023-07-31T06:30:58;5.07;;;2.10;;
13785;SDS011;47474;48.824;9.384;2023-07-31T06:33:25;4.28;;;2.40;;
13785;SDS011;47474;48.824;9.384;2023-07-31T06:35:52;3.78;;;2.17;;
13785;SDS011;47474;48.824;9.384;2023-07-31T06:38:21;3.05;;;2.08;;
13785;SDS011;47474;48.824;9.384;2023-07-31T06:40:48;2.63;;;2.10;;
13785;SDS011;47474;48.824;9.384;2023-07-31T06:43:15;4.32;;;2.20;;
13785;SDS011;47474;48.824;9.384;2023-07-31T06:45:46;4.22;;;2.10;;
13785;SDS011;47474;48.824;9.384;2023-07-31T06:48:15;4.75;;;2.13;;
13785;SDS011;47474;48.824;9.384;2023-07-31T06:50:41;3.63;;;2.10;;
13785;SDS011;47474;48.824;9.384;2023-07-31T06:53:08;5.57;;;1.98;;
13785;SDS011;47474;48.824;9.384;2023-07-31T06:55:35;3.63;;;1.98;;
13785;SDS011;47474;48.824;9.384;2023-07-31T06:58:01;4.93;;;2.45;;
13785;SDS011;47474;48.824;9.384;2023-07-31T07:00:28;3.28;;;2.00;;
13785;SDS011;47474;48.824;9.384;2023-07-31T07:02:56;5.40;;;2.00;;
13785;SDS011;47474;48.824;9.384;2023-07-31T07:05:22;4.65;;;2.00;;
13785;SDS011;47474;48.824;9.384;2023-07-31T07:07:49;3.90;;;2.30;;
13785;SDS011;47474;48.824;9.384;2023-07-31T07:10:16;2.85;;;2.33;;
13785;SDS011;47474;48.824;9.384;2023-07-31T07:12:43;5.32;;;2.33;;
13785;SDS011;47474;48.824;9.384;2023-07-31T07:15:10;4.30;;;2.10;;
13785;SDS011;47474;48.824;9.384;2023-07-31T07:17:36;4.22;;;2.17;;
13785;SDS011;47474;48.824;9.384;2023-07-31T07:20:05;2.92;;;2.25;;
13785;SDS011;47474;48.824;9.384;2023-07-31T07:22:33;4.47;;;2.35;;
13785;SDS011;47474;48.824;9.384;2023-07-31T07:24:59;3.15;;;2.33;;
13785;SDS011;47474;48.824;9.384;2023-07-31T07:27:26;5.10;;;2.33;;
13785;SDS011;47474;48.824;9.384;2023-07-31T07:29:52;5.65;;;2.13;;
13785;SDS011;47474;48.824;9.384;2023-07-31T07:32:19;5.47;;;2.40;;
13785;SDS011;47474;48.824;9.384;2023-07-31T07:34:47;4.75;;;2.00;;
13785;SDS011;47474;48.824;9.384;2023-07-31T07:37:15;5.53;;;2.20;;
13785;SDS011;47474;48.824;9.384;2023-07-31T07:39:42;6.10;;;2.40;;
13785;SDS011;47474;48.824;9.384;2023-07-31T07:42:09;5.82;;;2.42;;
13785;SDS011;47474;48.824;9.384;2023-07-31T07:44:36;2.83;;;2.10;;
13785;SDS011;47474;48.824;9.384;2023-07-31T07:47:02;5.35;;;2.60;;
13785;SDS011;47474;48.824;9.384;2023-07-31T07:49:31;5.00;;;2.30;;
13785;SDS011;47474;48.824;9.384;2023-07-31T07:51:57;5.13;;;2.58;;
13785;SDS011;47474;48.824;9.384;2023-07-31T07:54:25;3.70;;;2.30;;
13785;SDS011;47474;48.824;9.384;2023-07-31T07:56:52;4.15;;;2.47;;
13785;SDS011;47474;48.824;9.384;2023-07-31T07:59:19;3.30;;;2.50;;
13785;SDS011;47474;48.824;9.384;2023-07-31T08:01:45;4.53;;;2.50;;
13785;SDS011;47474;48.824;9.384;2023-07-31T08:04:12;5.60;;;2.20;;
13785;SDS011;47474;48.824;9.384;2023-07-31T08:06:38;5.32;;;2.70;;
13785;SDS011;47474;48.824;9.384;2023-07-31T08:09:06;4.20;;;2.38;;
13785;SDS011;47474;48.824;9.384;2023-07-31T08:11:35;5.07;;;2.40;;
13785;SDS011;47474;48.824;9.384;2023-07-31T08:14:02;4.93;;;2.80;;
13785;SDS011;47474;48.824;9.384;2023-07-31T08:16:28;5.05;;;2.45;;
13785;SDS011;47474;48.824;9.384;2023-07-31T08:18:55;5.68;;;2.35;;
13785;SDS011;47474;48.824;9.384;2023-07-31T08:21:22;7.00;;;2.65;;
13785;SDS011;47474;48.824;9.384;2023-07-31T08:23:51;4.70;;;2.22;;
13785;SDS011;47474;48.824;9.384;2023-07-31T08:26:17;4.38;;;2.45;;
13785;SDS011;47474;48.824;9.384;2023-07-31T08:28:46;4.70;;;2.50;;
13785;SDS011;47474;48.824;9.384;2023-07-31T08:31:12;3.72;;;2.55;;
13785;SDS011;47474;48.824;9.384;2023-07-31T08:33:39;4.30;;;2.70;;
13785;SDS011;47474;48.824;9.384;2023-07-31T08:36:06;5.85;;;2.28;;
13785;SDS011;47474;48.824;9.384;2023-07-31T08:38:32;4.43;;;2.42;;
13785;SDS011;47474;48.824;9.384;2023-07-31T08:40:59;5.63;;;2.38;;
13785;SDS011;47474;48.824;9.384;2023-07-31T08:43:26;7.63;;;2.53;;
13785;SDS011;47474;48.824;9.384;2023-07-31T08:45:54;6.68;;;2.88;;
13785;SDS011;47474;48.824;9.384;2023-07-31T08:48:21;7.30;;;2.63;;
13785;SDS011;47474;48.824;9.384;2023-07-31T08:50:49;5.60;;;2.63;;
13785;SDS011;47474;48.824;9.384;2023-07-31T08:53:16;4.75;;;3.00;;
13785;SDS011;47474;48.824;9.384;2023-07-31T08:55:44;6.82;;;3.10;;
13785;SDS011;47474;48.824;9.384;2023-07-31T09:04:55;6.03;;;2.40;;
13785;SDS011;47474;48.824;9.384;2023-07-31T09:07:43;5.05;;;2.38;;
13785;SDS011;47474;48.824;9.384;2023-07-31T09:10:23;2.95;;;2.22;;
13785;SDS011;47474;48.824;9.384;2023-07-31T09:12:59;5.60;;;2.58;;
13785;SDS011;47474;48.824;9.384;2023-07-31T09:15:41;6.18;;;2.75;;
13785;SDS011;47474;48.824;9.384;2023-07-31T09:18:10;3.90;;;2.33;;
13785;SDS011;47474;48.824;9.384;2023-07-31T09:21:01;4.22;;;2.22;;
13785;SDS011;47474;48.824;9.384;2023-07-31T09:23:55;4.03;;;2.78;;
13785;SDS011;47474;48.824;9.384;2023-07-31T09:26:29;5.10;;;2.70;;
13785;SDS011;47474;48.824;9.384;2023-07-31T09:28:57;4.45;;;2.55;;
13785;SDS011;47474;48.824;9.384;2023-07-31T09:31:38;4.10;;;2.38;;
13785;SDS011;47474;48.824;9.384;2023-07-31T09:34:09;5.47;;;2.38;;
13785;SDS011;47474;48.824;9.384;2023-07-31T09:36:41;4.95;;;2.45;;
13785;SDS011;47474;48.824;9.384;2023-07-31T09:39:09;5.43;;;2.60;;
13785;SDS011;47474;48.824;9.384;2023-07-31T09:41:38;3.40;;;2.45;;
13785;SDS011;47474;48.824;9.384;2023-07-31T09:44:05;5.38;;;2.80;;
13785;SDS011;47474;48.824;9.384;2023-07-31T09:46:34;5.60;;;2.60;;
13785;SDS011;47474;48.824;9.384;2023-07-31T09:49:06;3.63;;;2.80;;
13785;SDS011;47474;48.824;9.384;2023-07-31T09:51:36;5.90;;;2.50;;
13785;SDS011;47474;48.824;9.384;2023-07-31T09:54:11;3.85;;;2.60;;
13785;SDS011;47474;48.824;9.384;2023-07-31T09:56:41;4.20;;;2.38;;
13785;SDS011;47474;48.824;9.384;2023-07-31T09:59:10;4.13;;;2.28;;
13785;SDS011;47474;48.824;9.384;2023-07-31T10:01:41;6.45;;;2.85;;
13785;SDS011;47474;48.824;9.384;2023-07-31T10:04:09;4.15;;;2.83;;
13785;SDS011;47474;48.824;9.384;2023-07-31T10:06:36;5.80;;;2.63;;
13785;SDS011;47474;48.824;9.384;2023-07-31T10:09:05;4.03;;;2.30;;
13785;SDS011;47474;48.824;9.384;2023-07-31T10:11:36;3.00;;;2.63;;
13785;SDS011;47474;48.824;9.384;2023-07-31T10:14:04;3.53;;;2.30;;
13785;SDS011;47474;48.824;9.384;2023-07-31T10:16:31;3.78;;;2.33;;
13785;SDS011;47474;48.824;9.384;2023-07-31T10:18:58;4.75;;;2.55;;
13785;SDS011;47474;48.824;9.384;2023-07-31T10:21:25;5.85;;;2.35;;
13785;SDS011;47474;48.824;9.384;2023-07-31T10:23:52;5.43;;;2.50;;
13785;SDS011;47474;48.824;9.384;2023-07-31T10:26:22;4.63;;;2.40;;
13785;SDS011;47474;48.824;9.384;2023-07-31T10:28:51;5.03;;;2.65;;
13785;SDS011;47474;48.824;9.384;2023-07-31T10:31:19;4.43;;;2.50;;
13785;SDS011;47474;48.824;9.384;2023-07-31T10:33:45;6.53;;;2.38;;
13785;SDS011;47474;48.824;9.384;2023-07-31T10:36:12;5.30;;;2.70;;
13785;SDS011;47474;48.824;9.384;2023-07-31T10:38:40;4.35;;;2.38;;
13785;SDS011;47474;48.824;9.384;2023-07-31T10:41:09;6.47;;;3.00;;
13785;SDS011;47474;48.824;9.384;2023-07-31T10:43:36;5.43;;;2.58;;
13785;SDS011;47474;48.824;9.384;2023-07-31T10:46:07;4.97;;;2.47;;
13785;SDS011;47474;48.824;9.384;2023-07-31T10:48:34;4.00;;;2.28;;
13785;SDS011;47474;48.824;9.384;2023-07-31T10:51:02;5.63;;;2.83;;
13785;SDS011;47474;48.824;9.384;2023-07-31T10:53:33;4.80;;;2.53;;
13785;SDS011;47474;48.824;9.384;2023-07-31T10:56:00;3.92;;;2.47;;
13785;SDS011;47474;48.824;9.384;2023-07-31T10:58:28;3.85;;;2.50;;
13785;SDS011;47474;48.824;9.384;2023-07-31T11:00:57;5.38;;;2.78;;
13785;SDS011;47474;48.824;9.384;2023-07-31T11:03:26;4.78;;;2.88;;
13785;SDS011;47474;48.824;9.384;2023-07-31T11:05:56;4.18;;;2.65;;
13785;SDS011;47474;48.824;9.384;2023-07-31T11:08:28;3.17;;;2.55;;
13785;SDS011;47474;48.824;9.384;2023-07-31T11:11:04;2.55;;;2.25;;
13785;SDS011;47474;48.824;9.384;2023-07-31T11:13:32;4.47;;;2.40;;
13785;SDS011;47474;48.824;9.384;2023-07-31T11:15:59;4.35;;;2.65;;
13785;SDS011;47474;48.824;9.384;2023-07-31T11:18:27;3.92;;;2.58;;
13785;SDS011;47474;48.824;9.384;2023-07-31T11:20:54;6.35;;;3.00;;
13785;SDS011;47474;48.824;9.384;2023-07-31T11:23:21;5.07;;;2.70;;
13785;SDS011;47474;48.824;9.384;2023-07-31T11:25:48;4.43;;;2.70;;
13785;SDS011;47474;48.824;9.384;2023-07-31T11:28:15;3.88;;;2.63;;
13785;SDS011;47474;48.824;9.384;2023-07-31T11:30:43;4.93;;;2.53;;
13785;SDS011;47474;48.824;9.384;2023-07-31T11:33:11;4.15;;;2.60;;
13785;SDS011;47474;48.824;9.384;2023-07-31T11:35:45;4.57;;;2.85;;
13785;SDS011;47474;48.824;9.384;2023-07-31T11:38:20;3.65;;;2.40;;
13785;SDS011;47474;48.824;9.384;2023-07-31T11:40:47;6.10;;;2.70;;
13785;SDS011;47474;48.824;9.384;2023-07-31T11:43:14;4.35;;;2.67;;
13785;SDS011;47474;48.824;9.384;2023-07-31T11:45:44;5.22;;;2.70;;
13785;SDS011;47474;48.824;9.384;2023-07-31T11:48:17;4.70;;;2.70;;
13785;SDS011;47474;48.824;9.384;2023-07-31T11:50:46;6.07;;;2.38;;
13785;SDS011;47474;48.824;9.384;2023-07-31T11:53:14;5.90;;;3.10;;
13785;SDS011;47474;48.824;9.384;2023-07-31T11:55:42;4.13;;;2.78;;
13785;SDS011;47474;48.824;9.384;2023-07-31T11:58:08;3.78;;;2.80;;
13785;SDS011;47474;48.824;9.384;2023-07-31T12:00:35;4.05;;;2.80;;
13785;SDS011;47474;48.824;9.384;2023-07-31T12:03:02;5.25;;;2.83;;
13785;SDS011;47474;48.824;9.384;2023-07-31T12:05:29;8.52;;;3.55;;
13785;SDS011;47474;48.824;9.384;2023-07-31T12:08:00;5.72;;;2.95;;
13785;SDS011;47474;48.824;9.384;2023-07-31T12:10:27;4.22;;;3.10;;
13785;SDS011;47474;48.824;9.384;2023-07-31T12:12:55;3.30;;;2.83;;
13785;SDS011;47474;48.824;9.384;2023-07-31T12:15:32;4.93;;;2.67;;
13785;SDS011;47474;48.824;9.384;2023-07-31T12:18:00;4.13;;;3.28;;
13785;SDS011;47474;48.824;9.384;2023-07-31T12:20:30;5.40;;;3.03;;
13785;SDS011;47474;48.824;9.384;2023-07-31T12:23:02;6.45;;;3.30;;
13785;SDS011;47474;48.824;9.384;2023-07-31T12:25:32;6.40;;;3.00;;
13785;SDS011;47474;48.824;9.384;2023-07-31T12:28:07;3.92;;;2.80;;
13785;SDS011;47474;48.824;9.384;2023-07-31T12:30:38;4.68;;;3.00;;
13785;SDS011;47474;48.824;9.384;2023-07-31T12:33:12;5.18;;;2.97;;
13785;SDS011;47474;48.824;9.384;2023-07-31T12:50:54;3.67;;;2.53;;
13785;SDS011;47474;48.824;9.384;2023-07-31T12:53:25;5.57;;;3.10;;
13785;SDS011;47474;48.824;9.384;2023-07-31T12:55:55;4.95;;;3.00;;
13785;SDS011;47474;48.824;9.384;2023-07-31T12:58:22;4.10;;;2.75;;
13785;SDS011;47474;48.824;9.384;2023-07-31T13:00:50;3.90;;;2.60;;
13785;SDS011;47474;48.824;9.384;2023-07-31T13:03:17;5.50;;;2.67;;
13785;SDS011;47474;48.824;9.384;2023-07-31T13:05:46;3.53;;;2.45;;
13785;SDS011;47474;48.824;9.384;2023-07-31T13:08:13;4.40;;;2.85;;
13785;SDS011;47474;48.824;9.384;2023-07-31T13:10:43;4.68;;;3.13;;
13785;SDS011;47474;48.824;9.384;2023-07-31T13:13:21;4.70;;;2.63;;
13785;SDS011;47474;48.824;9.384;2023-07-31T13:15:48;5.05;;;3.15;;
13785;SDS011;47474;48.824;9.384;2023-07-31T13:18:37;4.10;;;3.05;;
13785;SDS011;47474;48.824;9.384;2023-07-31T13:21:36;4.55;;;2.92;;
13785;SDS011;47474;48.824;9.384;2023-07-31T13:24:03;4.07;;;2.70;;
13785;SDS011;47474;48.824;9.384;2023-07-31T13:26:32;3.97;;;2.63;;
13785;SDS011;47474;48.824;9.384;2023-07-31T13:29:03;6.63;;;2.97;;
13785;SDS011;47474;48.824;9.384;2023-07-31T13:31:39;4.45;;;2.40;;
13785;SDS011;47474;48.824;9.384;2023-07-31T13:37:32;4.13;;;2.70;;
13785;SDS011;47474;48.824;9.384;2023-07-31T13:40:05;4.70;;;2.90;;
13785;SDS011;47474;48.824;9.384;2023-07-31T13:42:33;4.85;;;3.20;;
13785;SDS011;47474;48.824;9.384;2023-07-31T13:45:02;3.55;;;2.50;;
13785;SDS011;47474;48.824;9.384;2023-07-31T13:47:55;3.97;;;3.25;;
13785;SDS011;47474;48.824;9.384;2023-07-31T13:50:29;3.72;;;2.60;;
13785;SDS011;47474;48.824;9.384;2023-07-31T13:53:03;4.90;;;2.60;;
13785;SDS011;47474;48.824;9.384;2023-07-31T13:58:40;4.28;;;2.90;;
13785;SDS011;47474;48.824;9.384;2023-07-31T14:01:24;4.05;;;2.60;;
13785;SDS011;47474;48.824;9.384;2023-07-31T14:04:08;4.18;;;3.13;;
13785;SDS011;47474;48.824;9.384;2023-07-31T14:06:57;3.92;;;2.72;;
13785;SDS011;47474;48.824;9.384;2023-07-31T14:27:46;3.45;;;2.85;;
13785;SDS011;47474;48.824;9.384;2023-07-31T14:30:12;4.25;;;3.08;;
13785;SDS011;47474;48.824;9.384;2023-07-31T14:32:39;5.15;;;2.95;;
13785;SDS011;47474;48.824;9.384;2023-07-31T14:35:06;3.30;;;2.35;;
13785;SDS011;47474;48.824;9.384;2023-07-31T14:37:36;4.65;;;2.67;;
13785;SDS011;47474;48.824;9.384;2023-07-31T14:40:04;2.97;;;2.60;;
13785;SDS011;47474;48.824;9.384;2023-07-31T14:42:32;6.15;;;2.88;;
13785;SDS011;47474;48.824;9.384;2023-07-31T14:45:00;3.75;;;2.78;;
13785;SDS011;47474;48.824;9.384;2023-07-31T14:47:27;3.55;;;2.72;;
13785;SDS011;47474;48.824;9.384;2023-07-31T14:49:56;3.85;;;2.80;;
13785;SDS011;47474;48.824;9.384;2023-07-31T14:52:22;3.50;;;2.78;;
13785;SDS011;47474;48.824;9.384;2023-07-31T14:54:49;4.60;;;2.85;;
13785;SDS011;47474;48.824;9.384;2023-07-31T14:57:15;3.35;;;2.75;;
13785;SDS011;47474;48.824;9.384;2023-07-31T14:59:42;3.58;;;2.88;;
13785;SDS011;47474;48.824;9.384;2023-07-31T15:02:10;4.65;;;2.60;;
13785;SDS011;47474;48.824;9.384;2023-07-31T15:04:37;6.38;;;2.60;;
13785;SDS011;47474;48.824;9.384;2023-07-31T15:07:04;3.67;;;3.00;;
13785;SDS011;47474;48.824;9.384;2023-07-31T15:09:31;5.57;;;2.80;;
13785;SDS011;47474;48.824;9.384;2023-07-31T15:11:58;6.03;;;3.00;;
13785;SDS011;47474;48.824;9.384;2023-07-31T15:14:24;4.53;;;2.70;;
13785;SDS011;47474;48.824;9.384;2023-07-31T15:16:52;4.13;;;2.40;;
13785;SDS011;47474;48.824;9.384;2023-07-31T15:19:20;5.45;;;2.80;;
13785;SDS011;47474;48.824;9.384;2023-07-31T15:21:47;5.20;;;2.80;;
13785;SDS011;47474;48.824;9.384;2023-07-31T15:24:14;3.38;;;2.88;;
13785;SDS011;47474;48.824;9.384;2023-07-31T15:26:41;4.45;;;2.97;;
13785;SDS011;47474;48.824;9.384;2023-07-31T15:29:08;4.03;;;2.95;;
13785;SDS011;47474;48.824;9.384;2023-07-31T15:31:36;4.97;;;2.67;;
13785;SDS011;47474;48.824;9.384;2023-07-31T15:34:03;3.95;;;3.00;;
13785;SDS011;47474;48.824;9.384;2023-07-31T15:36:31;5.88;;;3.05;;
13785;SDS011;47474;48.824;9.384;2023-07-31T15:38:58;7.03;;;3.08;;
13785;SDS011;47474;48.824;9.384;2023-07-31T15:41:24;4.25;;;2.78;;
13785;SDS011;47474;48.824;9.384;2023-07-31T15:43:51;5.05;;;3.25;;
13785;SDS011;47474;48.824;9.384;2023-07-31T15:46:18;4.70;;;2.92;;
13785;SDS011;47474;48.824;9.384;2023-07-31T15:48:44;3.15;;;2.35;;
13785;SDS011;47474;48.824;9.384;2023-07-31T15:51:11;5.28;;;2.70;;
13785;SDS011;47474;48.824;9.384;2023-07-31T15:53:39;4.00;;;2.60;;
13785;SDS011;47474;48.824;9.384;2023-07-31T15:56:05;4.13;;;2.65;;
13785;SDS011;47474;48.824;9.384;2023-07-31T15:58:32;3.60;;;2.63;;
13785;SDS011;47474;48.824;9.384;2023-07-31T16:00:59;2.95;;;2.63;;
13785;SDS011;47474;48.824;9.384;2023-07-31T16:03:25;4.03;;;2.90;;
13785;SDS011;47474;48.824;9.384;2023-07-31T16:05:52;2.60;;;2.40;;
13785;SDS011;47474;48.824;9.384;2023-07-31T16:08:18;4.20;;;2.95;;
13785;SDS011;47474;48.824;9.384;2023-07-31T16:10:47;3.35;;;2.42;;
13785;SDS011;47474;48.824;9.384;2023-07-31T16:13:13;3.63;;;2.85;;
13785;SDS011;47474;48.824;9.384;2023-07-31T16:15:40;4.40;;;2.70;;
13785;SDS011;47474;48.824;9.384;2023-07-31T16:33:37;3.55;;;2.80;;
13785;SDS011;47474;48.824;9.384;2023-07-31T16:36:04;4.60;;;3.30;;
13785;SDS011;47474;48.824;9.384;2023-07-31T16:38:30;3.90;;;2.72;;
13785;SDS011;47474;48.824;9.384;2023-07-31T16:40:58;5.63;;;3.30;;
13785;SDS011;47474;48.824;9.384;2023-07-31T16:43:24;3.28;;;2.75;;
13785;SDS011;47474;48.824;9.384;2023-07-31T16:45:53;3.00;;;2.60;;
13785;SDS011;47474;48.824;9.384;2023-07-31T16:48:20;3.38;;;3.08;;
13785;SDS011;47474;48.824;9.384;2023-07-31T16:50:48;3.35;;;2.72;;
13785;SDS011;47474;48.824;9.384;2023-07-31T16:53:14;4.68;;;2.95;;
13785;SDS011;47474;48.824;9.384;2023-07-31T16:55:41;3.10;;;2.80;;
13785;SDS011;47474;48.824;9.384;2023-07-31T16:58:08;4.57;;;2.92;;
13785;SDS011;47474;48.824;9.384;2023-07-31T17:00:34;3.78;;;2.70;;
13785;SDS011;47474;48.824;9.384;2023-07-31T17:03:01;5.20;;;2.75;;
13785;SDS011;47474;48.824;9.384;2023-07-31T17:05:28;3.40;;;2.63;;
13785;SDS011;47474;48.824;9.384;2023-07-31T17:07:56;4.15;;;2.90;;
13785;SDS011;47474;48.824;9.384;2023-07-31T17:10:23;3.45;;;2.40;;
13785;SDS011;47474;48.824;9.384;2023-07-31T17:12:49;5.00;;;3.10;;
13785;SDS011;47474;48.824;9.384;2023-07-31T17:15:16;4.35;;;2.80;;
13785;SDS011;47474;48.824;9.384;2023-07-31T17:17:43;5.25;;;3.20;;
13785;SDS011;47474;48.824;9.384;2023-07-31T17:20:10;3.78;;;2.90;;
13785;SDS011;47474;48.824;9.384;2023-07-31T17:22:37;3.85;;;2.72;;
13785;SDS011;47474;48.824;9.384;2023-07-31T17:25:05;3.42;;;2.80;;
13785;SDS011;47474;48.824;9.384;2023-07-31T17:27:32;5.25;;;3.42;;
13785;SDS011;47474;48.824;9.384;2023-07-31T17:29:59;4.63;;;2.85;;
13785;SDS011;47474;48.824;9.384;2023-07-31T17:32:26;5.20;;;2.85;;
13785;SDS011;47474;48.824;9.384;2023-07-31T17:34:52;5.07;;;3.10;;
13785;SDS011;47474;48.824;9.384;2023-07-31T17:37:19;5.53;;;2.83;;
13785;SDS011;47474;48.824;9.384;2023-07-31T17:39:45;3.92;;;2.38;;
13785;SDS011;47474;48.824;9.384;2023-07-31T17:42:13;4.97;;;3.10;;
13785;SDS011;47474;48.824;9.384;2023-07-31T17:44:40;4.00;;;3.05;;
13785;SDS011;47474;48.824;9.384;2023-07-31T17:47:06;4.30;;;2.80;;
13785;SDS011;47474;48.824;9.384;2023-07-31T17:49:33;5.95;;;2.80;;
13785;SDS011;47474;48.824;9.384;2023-07-31T17:52:00;3.10;;;2.80;;
13785;SDS011;47474;48.824;9.384;2023-07-31T17:54:27;4.20;;;2.58;;
13785;SDS011;47474;48.824;9.384;2023-07-31T17:56:54;3.55;;;2.88;;
13785;SDS011;47474;48.824;9.384;2023-07-31T17:59:22;4.15;;;2.60;;
13785;SDS011;47474;48.824;9.384;2023-07-31T18:01:49;5.47;;;2.80;;
13785;SDS011;47474;48.824;9.384;2023-07-31T18:04:15;4.70;;;2.60;;
13785;SDS011;47474;48.824;9.384;2023-07-31T18:06:42;5.82;;;2.95;;
13785;SDS011;47474;48.824;9.384;2023-07-31T18:09:09;3.00;;;2.70;;
13785;SDS011;47474;48.824;9.384;2023-07-31T18:11:36;3.85;;;2.92;;
13785;SDS011;47474;48.824;9.384;2023-07-31T18:14:02;5.50;;;3.08;;
13785;SDS011;47474;48.824;9.384;2023-07-31T18:16:30;3.63;;;2.80;;
13785;SDS011;47474;48.824;9.384;2023-07-31T18:18:57;4.93;;;2.85;;
13785;SDS011;47474;48.824;9.384;2023-07-31T18:21:23;3.05;;;2.70;;